createdAt,value
2018-03-23T00:00:40.709Z,100423
2018-03-23T00:03:09.163Z,100419
2018-03-23T00:05:37.541Z,100412
2018-03-23T00:08:06.692Z,100410
2018-03-23T00:10:35.103Z,100403
2018-03-23T00:13:03.501Z,100411
2018-03-23T00:15:33.704Z,100403
2018-03-23T00:18:02.288Z,100399
2018-03-23T00:20:30.803Z,100403
2018-03-23T00:22:59.176Z,100400
2018-03-23T00:25:28.341Z,100402
2018-03-23T00:27:56.616Z,100400
2018-03-23T00:30:25.132Z,100399
2018-03-23T00:32:53.463Z,100400
2018-03-23T00:35:22.034Z,100404
2018-03-23T00:37:50.446Z,100398
2018-03-23T00:40:18.783Z,100395
2018-03-23T00:42:47.098Z,100398
2018-03-23T00:45:16.427Z,100396
2018-03-23T00:47:44.702Z,100396
2018-03-23T00:50:12.986Z,100398
2018-03-23T00:52:41.298Z,100396
2018-03-23T00:55:09.564Z,100396
2018-03-23T00:57:37.902Z,100395
2018-03-23T01:00:06.942Z,100384
2018-03-23T01:02:35.407Z,100385
2018-03-23T01:05:03.708Z,100381
2018-03-23T01:07:32.039Z,100376
2018-03-23T01:10:00.428Z,100383
2018-03-23T01:12:28.872Z,100373
2018-03-23T01:14:57.259Z,100372
2018-03-23T01:17:26.328Z,100367
2018-03-23T01:19:54.773Z,100362
2018-03-23T01:22:23.191Z,100363
2018-03-23T01:24:51.708Z,100362
2018-03-23T01:27:20.267Z,100360
2018-03-23T01:29:49.553Z,100353
2018-03-23T01:32:17.862Z,100357
2018-03-23T01:34:46.313Z,100351
2018-03-23T01:37:15.534Z,100351
2018-03-23T01:39:44.598Z,100346
2018-03-23T01:42:12.964Z,100342
2018-03-23T01:44:41.276Z,100332
2018-03-23T01:47:10.347Z,100325
2018-03-23T01:49:38.658Z,100329
2018-03-23T01:52:07.832Z,100337
2018-03-23T01:54:36.181Z,100333
2018-03-23T01:57:04.721Z,100325
2018-03-23T01:59:33.133Z,100326
2018-03-23T02:02:02.593Z,100324
2018-03-23T02:04:31.838Z,100324
2018-03-23T02:07:00.223Z,100322
2018-03-23T02:09:28.532Z,100320
2018-03-23T02:11:56.822Z,100318
2018-03-23T02:14:26.778Z,100314
2018-03-23T02:16:55.105Z,100304
2018-03-23T02:19:24.259Z,100310
2018-03-23T02:21:52.589Z,100302
2018-03-23T02:24:21.665Z,100306
2018-03-23T02:26:50.064Z,100298
2018-03-23T02:29:19.224Z,100298
2018-03-23T02:31:48.388Z,100291
2018-03-23T02:34:16.654Z,100291
2018-03-23T02:36:44.933Z,100288
2018-03-23T02:39:13.263Z,100281
2018-03-23T02:41:41.556Z,100283
2018-03-23T02:44:10.765Z,100279
2018-03-23T02:46:40.219Z,100274
2018-03-23T02:49:08.567Z,100275
2018-03-23T02:51:36.874Z,100272
2018-03-23T02:54:05.244Z,100271
2018-03-23T02:56:33.553Z,100275
2018-03-23T02:59:02.901Z,100267
2018-03-23T03:01:31.377Z,100263
2018-03-23T03:03:59.657Z,100262
2018-03-23T03:06:28.222Z,100260
2018-03-23T03:08:56.550Z,100251
2018-03-23T03:11:25.159Z,100248
2018-03-23T03:13:54.334Z,100249
2018-03-23T03:16:22.677Z,100249
2018-03-23T03:18:50.967Z,100247
2018-03-23T03:21:19.359Z,100247
2018-03-23T03:23:47.769Z,100244
2018-03-23T03:26:16.803Z,100242
2018-03-23T03:28:45.214Z,100236
2018-03-23T03:31:13.675Z,100232
2018-03-23T03:33:42.278Z,100236
2018-03-23T03:36:10.593Z,100230
2018-03-23T03:38:39.717Z,100226
2018-03-23T03:41:08.012Z,100224
2018-03-23T03:43:36.482Z,100221
2018-03-23T03:46:04.777Z,100223
2018-03-23T03:48:33.075Z,100212
2018-03-23T03:51:01.344Z,100217
2018-03-23T03:53:29.654Z,100209
2018-03-23T03:55:57.957Z,100212
2018-03-23T03:58:26.514Z,100211
2018-03-23T04:00:54.872Z,100207
2018-03-23T04:03:23.402Z,100209
2018-03-23T04:05:51.673Z,100207
2018-03-23T04:08:19.964Z,100203
2018-03-23T04:10:48.254Z,100209
2018-03-23T04:13:16.558Z,100198
2018-03-23T04:15:45.776Z,100200
2018-03-23T04:18:14.839Z,100198
2018-03-23T04:20:43.320Z,100193
2018-03-23T04:23:11.779Z,100195
2018-03-23T04:25:40.377Z,100190
2018-03-23T04:28:08.713Z,100190
2018-03-23T04:30:37.020Z,100191
2018-03-23T04:33:05.343Z,100186
2018-03-23T04:35:34.426Z,100185
2018-03-23T04:38:03.534Z,100185
2018-03-23T04:40:31.820Z,100184
2018-03-23T04:43:00.164Z,100187
2018-03-23T04:45:28.443Z,100176
2018-03-23T04:47:56.841Z,100176
2018-03-23T04:50:25.890Z,100181
2018-03-23T04:52:54.185Z,100171
2018-03-23T04:55:22.569Z,100178
2018-03-23T04:57:50.880Z,100170
2018-03-23T05:00:19.339Z,100172
2018-03-23T05:02:48.479Z,100164
2018-03-23T05:05:16.780Z,100162
2018-03-23T05:07:45.335Z,100160
2018-03-23T05:10:13.660Z,100154
2018-03-23T05:12:42.803Z,100154
2018-03-23T05:15:11.202Z,100154
2018-03-23T05:17:39.584Z,100148
2018-03-23T05:20:07.870Z,100154
2018-03-23T05:22:36.170Z,100151
2018-03-23T05:25:05.399Z,100147
2018-03-23T05:27:34.554Z,100148
2018-03-23T05:30:03.733Z,100144
2018-03-23T05:32:32.083Z,100149
2018-03-23T05:35:00.624Z,100141
2018-03-23T05:37:29.840Z,100140
2018-03-23T05:39:58.333Z,100138
2018-03-23T05:42:26.680Z,100146
2018-03-23T05:44:55.795Z,100146
2018-03-23T05:47:24.299Z,100139
2018-03-23T05:49:52.571Z,100140
2018-03-23T05:52:22.164Z,100139
2018-03-23T05:54:50.443Z,100137
2018-03-23T05:57:19.060Z,100139
2018-03-23T05:59:47.360Z,100140
2018-03-23T06:02:15.760Z,100135
2018-03-23T06:04:45.024Z,100131
2018-03-23T06:07:13.376Z,100132
2018-03-23T06:09:41.793Z,100132
2018-03-23T06:12:10.401Z,100128
2018-03-23T06:14:38.735Z,100132
2018-03-23T06:17:07.022Z,100134
2018-03-23T06:19:35.409Z,100135
2018-03-23T06:22:04.574Z,100127
2018-03-23T06:24:32.920Z,100131
2018-03-23T06:27:01.348Z,100140
2018-03-23T06:29:30.028Z,100142
2018-03-23T06:31:58.375Z,100126
2018-03-23T06:34:26.709Z,100126
2018-03-23T06:36:55.089Z,100125
2018-03-23T06:39:23.675Z,100127
2018-03-23T06:41:53.014Z,100134
2018-03-23T06:44:21.519Z,100134
2018-03-23T06:46:49.996Z,100125
2018-03-23T06:49:18.308Z,100127
2018-03-23T06:51:46.673Z,100130
2018-03-23T06:54:15.085Z,100127
2018-03-23T06:56:44.274Z,100132
2018-03-23T06:59:13.390Z,100126
2018-03-23T07:01:41.829Z,100124
2018-03-23T07:04:10.431Z,100127
2018-03-23T07:06:39.593Z,100129
2018-03-23T07:09:07.900Z,100130
2018-03-23T07:11:37.148Z,100127
2018-03-23T07:14:05.506Z,100126
2018-03-23T07:16:33.789Z,100128
2018-03-23T07:19:02.129Z,100130
2018-03-23T07:21:31.315Z,100132
2018-03-23T07:24:00.445Z,100126
2018-03-23T07:26:28.766Z,100131
2018-03-23T07:28:57.055Z,100122
2018-03-23T07:31:25.685Z,100128
2018-03-23T07:33:54.200Z,100130
2018-03-23T07:36:22.631Z,100132
2018-03-23T07:38:51.728Z,100129
2018-03-23T07:41:20.875Z,100133
2018-03-23T07:43:49.304Z,100131
2018-03-23T07:46:18.390Z,100129
2018-03-23T07:48:47.653Z,100129
2018-03-23T07:51:16.081Z,100125
2018-03-23T07:53:45.466Z,100120
2018-03-23T07:56:13.766Z,100122
2018-03-23T07:58:42.151Z,100111
2018-03-23T08:01:10.635Z,100115
2018-03-23T08:03:40.049Z,100117
2018-03-23T08:06:08.687Z,100116
2018-03-23T08:08:37.884Z,100118
2018-03-23T08:11:06.325Z,100108
2018-03-23T08:13:34.645Z,100111
2018-03-23T08:16:04.204Z,100114
2018-03-23T08:18:32.699Z,100112
2018-03-23T08:21:01.050Z,100108
2018-03-23T08:23:29.494Z,100109
2018-03-23T08:25:58.801Z,100105
2018-03-23T08:28:28.222Z,100100
2018-03-23T08:30:57.880Z,100102
2018-03-23T08:33:27.053Z,100094
2018-03-23T08:35:55.427Z,100092
2018-03-23T08:38:23.726Z,100086
2018-03-23T08:40:52.099Z,100083
2018-03-23T08:43:20.655Z,100080
2018-03-23T08:45:49.217Z,100081
2018-03-23T08:48:17.589Z,100078
2018-03-23T08:50:45.976Z,100080
2018-03-23T08:53:14.601Z,100078
2018-03-23T08:55:42.979Z,100081
2018-03-23T08:58:11.318Z,100074
2018-03-23T09:00:40.575Z,100075
2018-03-23T09:03:08.974Z,100076
2018-03-23T09:05:38.036Z,100071
2018-03-23T09:08:06.335Z,100069
2018-03-23T09:10:35.549Z,100063
2018-03-23T09:13:04.589Z,100065
2018-03-23T09:15:32.869Z,100056
2018-03-23T09:18:01.272Z,100058
2018-03-23T09:20:29.661Z,100053
2018-03-23T09:22:58.140Z,100058
2018-03-23T09:25:27.364Z,100057
2018-03-23T09:27:55.931Z,100063
2018-03-23T09:30:24.342Z,100051
2018-03-23T09:32:53.349Z,100046
2018-03-23T09:35:21.732Z,100044
2018-03-23T09:37:50.012Z,100038
2018-03-23T09:40:18.291Z,100044
2018-03-23T09:42:46.608Z,100040
2018-03-23T09:45:15.746Z,100034
2018-03-23T09:47:44.220Z,100029
2018-03-23T09:50:12.785Z,100027
2018-03-23T09:52:41.352Z,100030
2018-03-23T09:55:10.632Z,100021
2018-03-23T09:57:39.044Z,100022
2018-03-23T10:00:07.336Z,100016
2018-03-23T10:02:36.485Z,100016
2018-03-23T10:05:04.794Z,100008
2018-03-23T10:07:33.277Z,100009
2018-03-23T10:10:01.599Z,100003
2018-03-23T10:12:30.160Z,100002
2018-03-23T10:14:58.497Z,100000
2018-03-23T10:17:27.650Z,99996
2018-03-23T10:19:55.950Z,99991
2018-03-23T10:22:24.235Z,99985
2018-03-23T10:24:53.472Z,99981
2018-03-23T10:27:21.895Z,99981
2018-03-23T10:29:50.381Z,99982
2018-03-23T10:32:19.460Z,99972
2018-03-23T10:34:48.592Z,99965
2018-03-23T10:37:17.656Z,99956
2018-03-23T10:39:45.946Z,99967
2018-03-23T10:42:15.302Z,99960
2018-03-23T10:44:43.898Z,99960
2018-03-23T10:47:12.331Z,99959
2018-03-23T10:49:40.800Z,99950
2018-03-23T10:52:09.113Z,99945
2018-03-23T10:54:37.530Z,99954
2018-03-23T10:57:05.807Z,99951
2018-03-23T10:59:34.350Z,99941
2018-03-23T11:02:07.745Z,99937
2018-03-23T11:04:36.164Z,99934
2018-03-23T11:07:04.453Z,99930
2018-03-23T11:09:32.848Z,99936
2018-03-23T11:12:01.916Z,99935
2018-03-23T11:14:30.261Z,99932
2018-03-23T11:16:58.582Z,99925
2018-03-23T11:19:27.113Z,99918
2018-03-23T11:21:55.482Z,99914
2018-03-23T11:24:23.945Z,99909
2018-03-23T11:26:52.335Z,99907
2018-03-23T11:29:20.608Z,99900
2018-03-23T11:31:48.968Z,99902
2018-03-23T11:34:18.010Z,99893
2018-03-23T11:36:46.453Z,99895
2018-03-23T11:39:16.298Z,99885
2018-03-23T11:41:44.769Z,99885
2018-03-23T11:44:13.074Z,99884
2018-03-23T11:46:41.393Z,99881
2018-03-23T11:49:10.585Z,99877
2018-03-23T11:51:39.803Z,99875
2018-03-23T11:54:08.252Z,99874
2018-03-23T11:56:36.698Z,99865
2018-03-23T11:59:05.291Z,99866
2018-03-23T12:01:33.757Z,99863
2018-03-23T12:04:02.127Z,99860
2018-03-23T12:06:30.572Z,99856
2018-03-23T12:09:00.861Z,99851
2018-03-23T12:11:29.386Z,99847
2018-03-23T12:13:57.730Z,99848
2018-03-23T12:16:26.090Z,99845
2018-03-23T12:18:54.530Z,99844
2018-03-23T12:21:22.847Z,99845
2018-03-23T12:23:51.288Z,99830
2018-03-23T12:26:19.857Z,99822
2018-03-23T12:28:48.176Z,99827
2018-03-23T12:31:16.609Z,99816
2018-03-23T12:33:45.686Z,99814
2018-03-23T12:36:14.771Z,99813
2018-03-23T12:38:43.170Z,99813
2018-03-23T12:41:12.267Z,99807
2018-03-23T12:43:41.415Z,99810
2018-03-23T12:46:09.753Z,99813
2018-03-23T12:48:38.097Z,99811
2018-03-23T12:51:06.427Z,99811
2018-03-23T12:53:34.828Z,99801
2018-03-23T12:56:03.312Z,99797
2018-03-23T12:58:31.777Z,99799
2018-03-23T13:01:00.181Z,99801
2018-03-23T13:03:28.698Z,99788
2018-03-23T13:05:58.034Z,99792
2018-03-23T13:08:26.526Z,99792
2018-03-23T13:10:56.041Z,99790
2018-03-23T13:13:24.501Z,99789
2018-03-23T13:15:53.186Z,99782
2018-03-23T13:18:21.538Z,99789
2018-03-23T13:20:50.110Z,99784
2018-03-23T13:23:19.344Z,99782
2018-03-23T13:25:47.779Z,99785
2018-03-23T13:28:16.882Z,99772
2018-03-23T13:30:45.271Z,99769
2018-03-23T13:33:13.655Z,99767
2018-03-23T13:35:41.942Z,99760
2018-03-23T13:38:10.627Z,99758
2018-03-23T13:40:38.958Z,99757
2018-03-23T13:43:07.305Z,99753
2018-03-23T13:45:35.602Z,99753
2018-03-23T13:48:04.709Z,99752
2018-03-23T13:50:33.231Z,99748
2018-03-23T13:53:01.533Z,99745
2018-03-23T13:55:30.262Z,99744
2018-03-23T13:57:59.653Z,99742
2018-03-23T14:00:33.626Z,99728
2018-03-23T14:03:02.088Z,99726
2018-03-23T14:05:30.445Z,99726
2018-03-23T14:07:58.901Z,99724
2018-03-23T14:10:27.253Z,99725
2018-03-23T14:12:55.737Z,99725
2018-03-23T14:15:24.084Z,99711
2018-03-23T14:17:52.622Z,99713
2018-03-23T14:20:22.444Z,99710
2018-03-23T14:22:52.292Z,99711
2018-03-23T14:25:22.299Z,99713
2018-03-23T14:27:52.396Z,99712
2018-03-23T14:30:21.898Z,99710
2018-03-23T14:32:52.210Z,99713
2018-03-23T14:35:20.782Z,99705
2018-03-23T14:37:49.313Z,99707
2018-03-23T14:40:17.673Z,99703
2018-03-23T14:42:46.171Z,99698
2018-03-23T14:45:14.780Z,99697
2018-03-23T14:47:43.115Z,99698
2018-03-23T14:50:12.341Z,99700
2018-03-23T14:52:40.805Z,99702
2018-03-23T14:55:09.637Z,99702
2018-03-23T14:57:38.068Z,99701
2018-03-23T15:00:06.527Z,99699
2018-03-23T15:02:35.838Z,99700
2018-03-23T15:05:04.242Z,99696
2018-03-23T15:10:07.998Z,99685
2018-03-23T15:12:37.242Z,99690
2018-03-23T15:15:05.610Z,99689
2018-03-23T15:17:34.951Z,99684
2018-03-23T15:20:03.473Z,99683
2018-03-23T15:22:32.095Z,99680
2018-03-23T15:25:00.495Z,99677
2018-03-23T15:27:29.003Z,99670
2018-03-23T15:29:57.407Z,99672
2018-03-23T15:32:26.120Z,99673
2018-03-23T15:34:54.468Z,99665
2018-03-23T15:37:22.838Z,99664
2018-03-23T15:39:51.979Z,99663
2018-03-23T15:42:20.649Z,99653
2018-03-23T15:44:50.173Z,99658
2018-03-23T15:47:18.673Z,99662
2018-03-23T15:49:47.129Z,99659
2018-03-23T15:52:15.499Z,99653
2018-03-23T15:54:44.119Z,99650
2018-03-23T15:57:12.619Z,99645
2018-03-23T15:59:41.050Z,99647
2018-03-23T16:02:09.534Z,99641
2018-03-23T16:04:38.214Z,99642
2018-03-23T16:07:06.612Z,99647
2018-03-23T16:09:35.538Z,99643
2018-03-23T16:12:03.935Z,99651
2018-03-23T16:14:33.129Z,99652
2018-03-23T16:17:01.534Z,99640
2018-03-23T16:19:30.013Z,99639
2018-03-23T16:21:58.522Z,99641
2018-03-23T16:24:28.012Z,99642
2018-03-23T16:26:56.493Z,99638
2018-03-23T16:29:24.958Z,99639
2018-03-23T16:31:53.797Z,99638
2018-03-23T16:34:22.439Z,99641
2018-03-23T16:36:50.859Z,99637
2018-03-23T16:39:19.512Z,99632
2018-03-23T16:41:47.977Z,99628
2018-03-23T16:44:17.458Z,99630
2018-03-23T16:46:46.073Z,99626
2018-03-23T16:49:15.228Z,99628
2018-03-23T16:51:43.646Z,99623
2018-03-23T16:54:12.205Z,99620
2018-03-23T16:56:41.479Z,99622
2018-03-23T16:59:09.985Z,99618
2018-03-23T17:01:39.449Z,99622
2018-03-23T17:04:08.437Z,99619
2018-03-23T17:06:37.021Z,99617
2018-03-23T17:09:05.911Z,99625
2018-03-23T17:11:34.519Z,99633
2018-03-23T17:14:03.019Z,99625
2018-03-23T17:16:32.363Z,99626
2018-03-23T17:19:01.168Z,99624
2018-03-23T17:21:29.682Z,99624
2018-03-23T17:23:58.491Z,99624
2018-03-23T17:26:28.212Z,99620
2018-03-23T17:28:56.943Z,99619
2018-03-23T17:31:26.455Z,99623
2018-03-23T17:33:55.384Z,99627
2018-03-23T17:36:24.270Z,99630
2018-03-23T17:38:54.118Z,99619
2018-03-23T17:41:22.595Z,99622
2018-03-23T17:43:51.324Z,99623
2018-03-23T17:46:23.120Z,99618
2018-03-23T17:48:52.678Z,99626
2018-03-23T17:51:21.168Z,99627
2018-03-23T17:53:50.137Z,99630
2018-03-23T17:56:18.695Z,99626
2018-03-23T17:58:48.352Z,99626
2018-03-23T18:01:17.186Z,99621
2018-03-23T18:03:46.653Z,99624
2018-03-23T18:06:15.667Z,99627
2018-03-23T18:08:44.194Z,99630
2018-03-23T18:11:12.753Z,99628
2018-03-23T18:13:42.191Z,99634
2018-03-23T18:16:10.873Z,99635
2018-03-23T18:18:39.482Z,99633
2018-03-23T18:21:08.569Z,99634
2018-03-23T18:23:38.052Z,99634
2018-03-23T18:26:06.978Z,99628
2018-03-23T18:28:36.639Z,99629
2018-03-23T18:31:05.389Z,99626
2018-03-23T18:33:34.283Z,99628
2018-03-23T18:36:05.020Z,99636
2018-03-23T18:38:35.711Z,99630
2018-03-23T18:41:04.524Z,99634
2018-03-23T18:43:32.996Z,99627
2018-03-23T18:46:01.808Z,99636
2018-03-23T18:48:31.151Z,99629
2018-03-23T18:51:00.023Z,99635
2018-03-23T18:53:28.562Z,99632
2018-03-23T18:55:57.154Z,99626
2018-03-23T18:58:26.089Z,99630
2018-03-23T19:00:54.705Z,99627
2018-03-23T19:03:23.196Z,99628
2018-03-23T19:05:53.843Z,99622
2018-03-23T19:08:22.584Z,99624
2018-03-23T19:10:51.537Z,99624
2018-03-23T19:13:20.341Z,99630
2018-03-23T19:15:48.865Z,99620
2018-03-23T19:18:17.654Z,99622
2018-03-23T19:20:46.335Z,99616
2018-03-23T19:23:15.209Z,99614
2018-03-23T19:25:44.104Z,99615
2018-03-23T19:28:12.742Z,99614
2018-03-23T19:30:42.217Z,99614
2018-03-23T19:33:11.091Z,99607
2018-03-23T19:35:39.595Z,99614
2018-03-23T19:38:08.449Z,99616
2018-03-23T19:40:38.137Z,99611
2018-03-23T19:43:07.084Z,99611
2018-03-23T19:45:37.253Z,99606
2018-03-23T19:48:06.539Z,99603
2018-03-23T19:50:36.861Z,99600
2018-03-23T19:53:07.584Z,99602
2018-03-23T19:55:37.019Z,99599
2018-03-23T19:58:06.423Z,99594
2018-03-23T20:00:35.885Z,99596
2018-03-23T20:03:04.847Z,99595
2018-03-23T20:05:34.348Z,99594
2018-03-23T20:08:03.474Z,99592
2018-03-23T20:10:32.869Z,99592
2018-03-23T20:13:02.120Z,99603
2018-03-23T20:15:30.862Z,99589
2018-03-23T20:21:04.886Z,99590
2018-03-23T20:23:33.738Z,99594
2018-03-23T20:26:02.128Z,99585
2018-03-23T20:28:36.127Z,99593
2018-03-23T20:31:04.539Z,99592
2018-03-23T20:33:33.303Z,99591
2018-03-23T20:36:01.925Z,99587
2018-03-23T20:38:30.338Z,99591
2018-03-23T20:40:58.702Z,99585
2018-03-23T20:43:28.614Z,99582
2018-03-23T20:45:57.077Z,99587
2018-03-23T20:48:26.457Z,99582
2018-03-23T20:50:55.728Z,99576
2018-03-23T20:53:24.600Z,99573
2018-03-23T20:55:53.574Z,99574
2018-03-23T20:58:22.078Z,99572
2018-03-23T21:00:50.935Z,99572
2018-03-23T21:03:20.285Z,99570
2018-03-23T21:05:48.741Z,99574
2018-03-23T21:08:17.293Z,99570
2018-03-23T21:10:46.615Z,99567
2018-03-23T21:13:16.263Z,99573
2018-03-23T21:15:45.241Z,99576
2018-03-23T21:18:13.926Z,99571
2018-03-23T21:20:43.189Z,99569
2018-03-23T21:23:11.625Z,99571
2018-03-23T21:25:40.203Z,99571
2018-03-23T21:28:09.052Z,99573
2018-03-23T21:30:37.881Z,99565
2018-03-23T21:33:06.456Z,99571
2018-03-23T21:35:35.229Z,99566
2018-03-23T21:38:03.841Z,99562
2018-03-23T21:40:32.608Z,99568
2018-03-23T21:43:01.136Z,99564
2018-03-23T21:45:30.661Z,99558
2018-03-23T21:47:59.986Z,99560
2018-03-23T21:50:28.333Z,99561
2018-03-23T21:52:57.766Z,99555
2018-03-23T21:55:26.162Z,99557
2018-03-23T21:57:54.522Z,99558
2018-03-23T22:00:24.681Z,99555
2018-03-23T22:02:53.313Z,99551
2018-03-23T22:05:21.825Z,99557
2018-03-23T22:07:50.341Z,99557
2018-03-23T22:10:19.482Z,99553
2018-03-23T22:12:47.943Z,99547
2018-03-23T22:15:17.037Z,99549
2018-03-23T22:17:46.421Z,99550
2018-03-23T22:20:14.931Z,99554
2018-03-23T22:22:43.414Z,99553
2018-03-23T22:25:11.949Z,99551
2018-03-23T22:27:40.240Z,99548
2018-03-23T22:30:08.918Z,99551
2018-03-23T22:32:37.399Z,99550
2018-03-23T22:35:05.740Z,99546
2018-03-23T22:37:34.284Z,99546
2018-03-23T22:40:03.499Z,99542
2018-03-23T22:42:31.872Z,99539
2018-03-23T22:45:00.459Z,99539
2018-03-23T22:47:29.638Z,99537
2018-03-23T22:49:58.259Z,99532
2018-03-23T22:52:26.569Z,99535
2018-03-23T22:54:55.149Z,99537
2018-03-23T22:57:23.568Z,99532
2018-03-23T22:59:53.665Z,99535
2018-03-23T23:02:22.258Z,99529
2018-03-23T23:04:50.649Z,99524
2018-03-23T23:07:19.849Z,99528
2018-03-23T23:09:48.156Z,99529
2018-03-23T23:12:16.494Z,99526
2018-03-23T23:14:44.995Z,99520
2018-03-23T23:17:13.687Z,99520
2018-03-23T23:19:42.149Z,99512
2018-03-23T23:22:10.642Z,99512
2018-03-23T23:24:39.178Z,99509
2018-03-23T23:27:07.616Z,99497
2018-03-23T23:29:35.939Z,99500
2018-03-23T23:32:04.411Z,99504
2018-03-23T23:34:32.750Z,99492
2018-03-23T23:37:01.301Z,99494
2018-03-23T23:39:29.751Z,99496
2018-03-23T23:41:58.160Z,99492
2018-03-23T23:44:27.566Z,99490
2018-03-23T23:46:56.642Z,99487
2018-03-23T23:49:24.995Z,99486
2018-03-23T23:51:53.349Z,99489
2018-03-23T23:54:21.689Z,99487
2018-03-23T23:56:50.842Z,99482
2018-03-23T23:59:19.287Z,99489
